sensor_id;sensor_type;location;lat;lon;timestamp;pressure;altitude;pressure_sealevel;temperature;humidity
58739;BME280;44512;53.046;18.604;2023-04-27T00:04:45;101671.64;;;7.67;47.86
58739;BME280;44512;53.046;18.604;2023-04-27T00:15:14;101658.11;;;7.59;48.15
58739;BME280;44512;53.046;18.604;2023-04-27T00:25:42;101667.16;;;7.50;48.42
58739;BME280;44512;53.046;18.604;2023-04-27T00:36:10;101677.85;;;7.42;48.74
58739;BME280;44512;53.046;18.604;2023-04-27T00:46:39;101675.25;;;7.32;49.04
58739;BME280;44512;53.046;18.604;2023-04-27T00:57:07;101674.33;;;7.23;49.26
58739;BME280;44512;53.046;18.604;2023-04-27T01:07:37;101684.96;;;7.07;49.52
58739;BME280;44512;53.046;18.604;2023-04-27T01:18:04;101689.50;;;6.89;49.96
58739;BME280;44512;53.046;18.604;2023-04-27T01:28:32;101690.02;;;6.74;50.23
58739;BME280;44512;53.046;18.604;2023-04-27T01:39:01;101699.77;;;6.58;50.59
58739;BME280;44512;53.046;18.604;2023-04-27T01:49:29;101699.82;;;6.48;51.29
58739;BME280;44512;53.046;18.604;2023-04-27T01:59:58;101693.43;;;6.49;51.65
58739;BME280;44512;53.046;18.604;2023-04-27T02:10:26;101698.70;;;6.41;51.87
58739;BME280;44512;53.046;18.604;2023-04-27T02:20:54;101697.63;;;6.34;52.24
58739;BME280;44512;53.046;18.604;2023-04-27T02:31:23;101706.12;;;6.29;52.63
58739;BME280;44512;53.046;18.604;2023-04-27T02:41:51;101712.34;;;6.30;53.08
58739;BME280;44512;53.046;18.604;2023-04-27T02:52:20;101718.13;;;6.35;53.27
58739;BME280;44512;53.046;18.604;2023-04-27T03:02:48;101725.91;;;6.38;53.37
58739;BME280;44512;53.046;18.604;2023-04-27T03:13:16;101730.29;;;6.39;53.52
58739;BME280;44512;53.046;18.604;2023-04-27T03:23:45;101735.38;;;6.42;53.58
58739;BME280;44512;53.046;18.604;2023-04-27T03:34:13;101746.84;;;6.44;53.63
58739;BME280;44512;53.046;18.604;2023-04-27T03:44:42;101756.18;;;6.40;53.77
58739;BME280;44512;53.046;18.604;2023-04-27T03:55:10;101758.87;;;6.40;53.93
58739;BME280;44512;53.046;18.604;2023-04-27T04:05:39;101777.70;;;6.40;54.06
58739;BME280;44512;53.046;18.604;2023-04-27T04:16:08;101785.76;;;6.40;54.37
58739;BME280;44512;53.046;18.604;2023-04-27T04:26:35;101791.02;;;6.41;54.76
58739;BME280;44512;53.046;18.604;2023-04-27T04:37:04;101797.23;;;6.42;55.19
58739;BME280;44512;53.046;18.604;2023-04-27T04:47:32;101802.74;;;6.40;55.75
58739;BME280;44512;53.046;18.604;2023-04-27T04:58:01;101807.41;;;6.48;56.13
58739;BME280;44512;53.046;18.604;2023-04-27T05:08:29;101821.27;;;6.53;56.51
58739;BME280;44512;53.046;18.604;2023-04-27T05:18:58;101829.58;;;6.60;56.61
58739;BME280;44512;53.046;18.604;2023-04-27T05:29:26;101833.24;;;6.68;56.71
58739;BME280;44512;53.046;18.604;2023-04-27T05:39:54;101821.72;;;6.76;56.93
58739;BME280;44512;53.046;18.604;2023-04-27T05:50:23;101831.59;;;6.85;57.10
58739;BME280;44512;53.046;18.604;2023-04-27T06:00:52;101847.70;;;6.95;56.78
58739;BME280;44512;53.046;18.604;2023-04-27T06:11:20;101849.05;;;7.09;56.51
58739;BME280;44512;53.046;18.604;2023-04-27T06:21:50;101851.38;;;7.21;56.32
58739;BME280;44512;53.046;18.604;2023-04-27T06:32:16;101846.77;;;7.31;55.97
58739;BME280;44512;53.046;18.604;2023-04-27T06:42:45;101848.95;;;7.46;55.32
58739;BME280;44512;53.046;18.604;2023-04-27T06:53:13;101862.74;;;7.61;54.13
58739;BME280;44512;53.046;18.604;2023-04-27T07:03:42;101850.27;;;7.77;53.61
58739;BME280;44512;53.046;18.604;2023-04-27T07:14:10;101852.41;;;7.92;52.62
58739;BME280;44512;53.046;18.604;2023-04-27T07:24:38;101863.63;;;8.05;51.12
58739;BME280;44512;53.046;18.604;2023-04-27T07:35:07;101859.55;;;8.19;49.41
58739;BME280;44512;53.046;18.604;2023-04-27T07:45:35;101858.27;;;8.31;48.31
58739;BME280;44512;53.046;18.604;2023-04-27T07:56:05;101845.79;;;8.48;46.63
58739;BME280;44512;53.046;18.604;2023-04-27T08:06:32;101851.76;;;8.59;45.77
58739;BME280;44512;53.046;18.604;2023-04-27T08:17:01;101843.54;;;8.69;44.52
58739;BME280;44512;53.046;18.604;2023-04-27T08:27:29;101860.77;;;8.76;44.38
58739;BME280;44512;53.046;18.604;2023-04-27T08:37:57;101854.90;;;8.81;45.28
58739;BME280;44512;53.046;18.604;2023-04-27T08:48:26;101843.27;;;8.88;44.61
58739;BME280;44512;53.046;18.604;2023-04-27T08:58:56;101856.82;;;8.97;44.03
58739;BME280;44512;53.046;18.604;2023-04-27T09:09:24;101860.55;;;9.04;44.18
58739;BME280;44512;53.046;18.604;2023-04-27T09:19:51;101859.92;;;9.10;43.93
58739;BME280;44512;53.046;18.604;2023-04-27T09:30:20;101856.39;;;9.18;43.40
58739;BME280;44512;53.046;18.604;2023-04-27T09:40:50;101861.14;;;9.24;43.47
58739;BME280;44512;53.046;18.604;2023-04-27T09:51:16;101864.05;;;9.30;42.47
58739;BME280;44512;53.046;18.604;2023-04-27T10:12:25;101856.61;;;9.40;41.31
58739;BME280;44512;53.046;18.604;2023-04-27T10:22:43;101869.15;;;9.50;40.10
58739;BME280;44512;53.046;18.604;2023-04-27T10:33:10;101864.61;;;9.58;39.92
58739;BME280;44512;53.046;18.604;2023-04-27T10:43:38;101866.98;;;9.70;39.42
58739;BME280;44512;53.046;18.604;2023-04-27T10:54:07;101859.75;;;9.78;37.63
58739;BME280;44512;53.046;18.604;2023-04-27T11:04:36;101859.91;;;9.85;37.59
58739;BME280;44512;53.046;18.604;2023-04-27T11:15:04;101872.61;;;9.93;37.69
58739;BME280;44512;53.046;18.604;2023-04-27T11:25:31;101875.30;;;10.01;37.74
58739;BME280;44512;53.046;18.604;2023-04-27T11:35:59;101880.87;;;10.07;37.90
58739;BME280;44512;53.046;18.604;2023-04-27T11:46:28;101879.34;;;10.13;37.01
58739;BME280;44512;53.046;18.604;2023-04-27T11:57:05;101884.95;;;10.20;37.01
58739;BME280;44512;53.046;18.604;2023-04-27T12:07:24;101883.45;;;10.25;36.44
58739;BME280;44512;53.046;18.604;2023-04-27T12:17:53;101886.48;;;10.30;36.00
58739;BME280;44512;53.046;18.604;2023-04-27T12:28:21;101890.89;;;10.31;36.35
58739;BME280;44512;53.046;18.604;2023-04-27T12:38:49;101915.58;;;10.36;36.79
58739;BME280;44512;53.046;18.604;2023-04-27T12:49:18;101905.41;;;10.38;35.86
58739;BME280;44512;53.046;18.604;2023-04-27T12:59:46;101904.40;;;10.48;35.97
58739;BME280;44512;53.046;18.604;2023-04-27T13:10:15;101905.90;;;10.58;36.24
58739;BME280;44512;53.046;18.604;2023-04-27T13:20:43;101908.95;;;10.63;35.15
58739;BME280;44512;53.046;18.604;2023-04-27T13:31:11;101927.38;;;10.68;35.41
58739;BME280;44512;53.046;18.604;2023-04-27T13:41:40;101930.09;;;10.76;35.36
58739;BME280;44512;53.046;18.604;2023-04-27T13:52:08;101915.81;;;10.90;34.90
58739;BME280;44512;53.046;18.604;2023-04-27T14:02:37;101906.75;;;11.23;33.79
58739;BME280;44512;53.046;18.604;2023-04-27T14:13:05;101906.98;;;11.44;33.59
58739;BME280;44512;53.046;18.604;2023-04-27T14:23:33;101907.73;;;11.61;33.10
58739;BME280;44512;53.046;18.604;2023-04-27T14:34:02;101923.17;;;11.91;31.24
58739;BME280;44512;53.046;18.604;2023-04-27T14:49:41;101933.29;;;11.97;31.17
58739;BME280;44512;53.046;18.604;2023-04-27T15:00:11;101932.88;;;11.86;31.27
58739;BME280;44512;53.046;18.604;2023-04-27T15:10:38;101942.58;;;11.72;31.93
58739;BME280;44512;53.046;18.604;2023-04-27T15:21:06;101933.71;;;11.86;33.02
58739;BME280;44512;53.046;18.604;2023-04-27T15:31:35;101940.23;;;12.23;32.76
58739;BME280;44512;53.046;18.604;2023-04-27T15:42:04;101954.05;;;12.36;32.00
58739;BME280;44512;53.046;18.604;2023-04-27T15:52:32;101959.53;;;12.28;32.74
58739;BME280;44512;53.046;18.604;2023-04-27T16:03:00;101977.93;;;12.18;33.12
58739;BME280;44512;53.046;18.604;2023-04-27T16:13:28;101971.59;;;12.03;33.32
58739;BME280;44512;53.046;18.604;2023-04-27T16:23:57;101961.99;;;11.92;32.95
58739;BME280;44512;53.046;18.604;2023-04-27T16:34:25;101956.07;;;11.88;32.25
58739;BME280;44512;53.046;18.604;2023-04-27T16:44:53;101971.34;;;11.89;32.11
58739;BME280;44512;53.046;18.604;2023-04-27T16:55:22;101964.70;;;11.92;32.40
58739;BME280;44512;53.046;18.604;2023-04-27T17:05:51;101971.66;;;11.94;32.61
58739;BME280;44512;53.046;18.604;2023-04-27T17:16:19;101978.08;;;11.93;32.85
58739;BME280;44512;53.046;18.604;2023-04-27T17:26:47;101973.87;;;11.91;33.01
58739;BME280;44512;53.046;18.604;2023-04-27T17:37:15;101984.76;;;11.83;33.32
58739;BME280;44512;53.046;18.604;2023-04-27T17:47:44;101973.56;;;11.78;33.69
58739;BME280;44512;53.046;18.604;2023-04-27T17:58:12;101982.60;;;11.70;34.06
58739;BME280;44512;53.046;18.604;2023-04-27T18:08:40;101995.52;;;11.60;34.58
58739;BME280;44512;53.046;18.604;2023-04-27T18:19:09;102004.06;;;11.48;35.96
58739;BME280;44512;53.046;18.604;2023-04-27T18:29:37;102038.00;;;11.28;36.55
58739;BME280;44512;53.046;18.604;2023-04-27T18:40:06;102037.35;;;11.10;36.43
58739;BME280;44512;53.046;18.604;2023-04-27T18:50:34;102037.05;;;10.97;36.91
58739;BME280;44512;53.046;18.604;2023-04-27T19:01:02;102041.45;;;10.81;37.95
58739;BME280;44512;53.046;18.604;2023-04-27T19:11:31;102052.95;;;10.59;38.95
58739;BME280;44512;53.046;18.604;2023-04-27T19:21:59;102048.87;;;10.30;39.72
58739;BME280;44512;53.046;18.604;2023-04-27T19:32:28;102062.29;;;10.06;40.49
58739;BME280;44512;53.046;18.604;2023-04-27T19:42:56;102064.90;;;9.81;41.01
58739;BME280;44512;53.046;18.604;2023-04-27T19:53:24;102067.52;;;9.57;41.58
58739;BME280;44512;53.046;18.604;2023-04-27T20:03:53;102069.54;;;9.29;42.18
58739;BME280;44512;53.046;18.604;2023-04-27T20:14:21;102085.63;;;9.12;42.80
58739;BME280;44512;53.046;18.604;2023-04-27T20:24:49;102081.27;;;8.94;43.41
58739;BME280;44512;53.046;18.604;2023-04-27T20:35:18;102088.38;;;8.77;43.90
58739;BME280;44512;53.046;18.604;2023-04-27T20:45:46;102091.78;;;8.61;44.48
58739;BME280;44512;53.046;18.604;2023-04-27T20:56:15;102098.42;;;8.49;45.05
58739;BME280;44512;53.046;18.604;2023-04-27T21:06:43;102099.04;;;8.43;45.58
58739;BME280;44512;53.046;18.604;2023-04-27T21:17:12;102105.02;;;8.37;46.02
58739;BME280;44512;53.046;18.604;2023-04-27T21:27:40;102102.74;;;8.32;46.30
58739;BME280;44512;53.046;18.604;2023-04-27T21:38:08;102097.67;;;8.29;46.60
58739;BME280;44512;53.046;18.604;2023-04-27T21:48:37;102104.20;;;8.26;46.60
58739;BME280;44512;53.046;18.604;2023-04-27T21:59:05;102110.21;;;8.20;46.93
58739;BME280;44512;53.046;18.604;2023-04-27T22:09:34;102112.67;;;8.14;47.29
58739;BME280;44512;53.046;18.604;2023-04-27T22:20:03;102105.48;;;8.04;47.36
58739;BME280;44512;53.046;18.604;2023-04-27T22:30:31;102127.70;;;7.89;47.39
58739;BME280;44512;53.046;18.604;2023-04-27T22:40:59;102117.29;;;7.66;47.56
58739;BME280;44512;53.046;18.604;2023-04-27T22:51:27;102114.50;;;7.48;47.82
58739;BME280;44512;53.046;18.604;2023-04-27T23:01:56;102111.00;;;7.28;48.15
58739;BME280;44512;53.046;18.604;2023-04-27T23:12:24;102118.83;;;7.12;48.54
58739;BME280;44512;53.046;18.604;2023-04-27T23:22:53;102106.68;;;6.98;48.63
58739;BME280;44512;53.046;18.604;2023-04-27T23:33:21;102107.53;;;6.79;48.50
58739;BME280;44512;53.046;18.604;2023-04-27T23:43:50;102117.16;;;6.63;49.01
58739;BME280;44512;53.046;18.604;2023-04-27T23:54:18;102110.62;;;6.46;49.06
